createdAt,value
2018-12-07T00:01:44.512Z,99170.61
2018-12-07T00:07:47.849Z,99161.72
2018-12-07T00:13:51.184Z,99148.81
2018-12-07T00:19:54.526Z,99137.23
2018-12-07T00:25:57.860Z,99125.47
2018-12-07T00:32:01.223Z,99122.98
2018-12-07T00:38:05.229Z,99123.63
2018-12-07T00:44:08.702Z,99136.09
2018-12-07T00:50:12.025Z,99135.19
2018-12-07T00:56:15.355Z,99136.20
2018-12-07T01:02:18.681Z,99136.87
2018-12-07T01:08:22.032Z,99126.84
2018-12-07T01:14:25.367Z,99120.96
2018-12-07T01:20:28.710Z,99120.23
2018-12-07T01:26:48.746Z,99109.16
2018-12-07T01:32:52.088Z,99098.75
2018-12-07T01:38:55.417Z,99090.38
2018-12-07T01:44:58.748Z,99093.44
2018-12-07T01:51:02.098Z,99082.20
2018-12-07T01:57:05.459Z,99071.17
2018-12-07T02:03:08.802Z,99070.61
2018-12-07T02:09:12.109Z,99060.58
2018-12-07T02:15:15.468Z,99052.36
2018-12-07T02:21:18.775Z,99036.08
2018-12-07T02:27:22.098Z,99023.70
2018-12-07T02:33:25.461Z,99013.71
2018-12-07T02:39:28.790Z,99002.91
2018-12-07T02:45:32.108Z,99004.07
2018-12-07T02:51:35.448Z,98999.70
2018-12-07T02:57:38.773Z,98987.48
2018-12-07T03:03:42.100Z,98978.44
2018-12-07T03:09:45.414Z,98970.56
2018-12-07T03:15:48.747Z,98969.56
2018-12-07T03:21:52.078Z,98954.49
2018-12-07T03:27:55.399Z,98953.33
2018-12-07T03:33:58.734Z,98956.78
2018-12-07T03:40:02.129Z,98949.47
2018-12-07T03:46:05.468Z,98955.33
2018-12-07T03:52:08.786Z,98948.14
2018-12-07T03:58:12.100Z,98947.84
2018-12-07T04:04:15.417Z,98932.67
2018-12-07T04:10:18.783Z,98937.35
2018-12-07T04:16:22.095Z,98931.63
2018-12-07T04:22:25.419Z,98920.23
2018-12-07T04:28:28.738Z,98924.50
2018-12-07T04:34:32.557Z,98925.73
2018-12-07T04:40:35.872Z,98917.04
2018-12-07T04:46:39.196Z,98911.77
2018-12-07T04:52:42.513Z,98906.59
2018-12-07T04:58:46.207Z,98901.87
2018-12-07T05:04:49.669Z,98888.42
2018-12-07T05:10:53.002Z,98888.84
2018-12-07T05:16:56.313Z,98878.75
2018-12-07T05:22:59.646Z,98869.92
2018-12-07T05:29:02.972Z,98862.83
2018-12-07T05:35:06.758Z,98851.19
2018-12-07T05:41:10.097Z,98850.73
2018-12-07T05:47:13.429Z,98847.79
2018-12-07T05:53:18.200Z,98848.50
2018-12-07T05:59:21.554Z,98853.13
2018-12-07T06:05:24.866Z,98853.91
2018-12-07T06:11:28.201Z,98850.64
2018-12-07T06:17:31.511Z,98841.77
2018-12-07T06:23:34.828Z,98837.94
2018-12-07T06:29:38.167Z,98821.36
2018-12-07T06:35:41.481Z,98825.45
2018-12-07T06:41:44.801Z,98824.59
2018-12-07T06:47:48.129Z,98811.80
2018-12-07T06:53:51.441Z,98810.42
2018-12-07T06:59:54.773Z,98802.67
2018-12-07T07:05:58.081Z,98801.20
2018-12-07T07:12:01.385Z,98787.23
2018-12-07T07:18:04.743Z,98785.30
2018-12-07T07:24:08.071Z,98778.79
2018-12-07T07:30:14.323Z,98779.19
2018-12-07T07:36:17.644Z,98772.86
2018-12-07T07:42:20.986Z,98767.23
2018-12-07T07:48:24.310Z,98753.30
2018-12-07T07:54:27.630Z,98751.43
2018-12-07T08:00:31.007Z,98750.39
2018-12-07T08:06:34.326Z,98735.87
2018-12-07T08:12:37.704Z,98723.39
2018-12-07T08:18:43.599Z,98719.88
2018-12-07T08:24:46.989Z,98718.59
2018-12-07T08:30:50.305Z,98700.13
2018-12-07T08:36:53.612Z,98702.80
2018-12-07T08:42:57.018Z,98694.12
2018-12-07T08:49:00.333Z,98685.77
2018-12-07T08:55:03.816Z,98674.17
2018-12-07T09:01:07.157Z,98680.69
2018-12-07T09:07:10.485Z,98673.67
2018-12-07T09:13:13.794Z,98664.17
2018-12-07T09:19:17.125Z,98656.44
2018-12-07T09:25:20.446Z,98644.02
2018-12-07T09:31:23.759Z,98636.13
2018-12-07T09:37:28.858Z,98616.98
2018-12-07T09:43:32.443Z,98612.59
2018-12-07T09:49:35.789Z,98602.28
2018-12-07T09:55:39.139Z,98599.09
2018-12-07T10:01:42.454Z,98607.00
2018-12-07T10:07:45.799Z,98595.62
2018-12-07T10:13:49.126Z,98585.39
2018-12-07T10:19:52.432Z,98571.42
2018-12-07T10:25:55.750Z,98559.98
2018-12-07T10:31:59.129Z,98554.72
2018-12-07T10:38:02.453Z,98536.11
2018-12-07T10:44:05.790Z,98528.42
2018-12-07T10:50:09.172Z,98512.28
2018-12-07T10:56:12.571Z,98503.59
2018-12-07T11:02:21.250Z,98484.21
2018-12-07T11:08:30.034Z,98478.22
2018-12-07T11:14:38.824Z,98460.06
2018-12-07T11:27:23.955Z,98438.40
2018-12-07T11:39:57.632Z,98412.91
2018-12-07T11:46:01.003Z,98391.91
2018-12-07T11:52:04.362Z,98375.02
2018-12-07T11:58:07.700Z,98357.14
2018-12-07T12:04:11.055Z,98335.23
2018-12-07T12:10:14.475Z,98330.48
2018-12-07T12:16:17.810Z,98334.30
2018-12-07T12:22:21.144Z,98315.27
2018-12-07T12:28:24.478Z,98295.75
2018-12-07T12:34:27.817Z,98291.07
2018-12-07T12:40:31.153Z,98281.22
2018-12-07T12:52:42.794Z,98221.28
2018-12-07T12:58:46.147Z,98210.85
2018-12-07T13:04:49.496Z,98211.97
2018-12-07T13:10:52.831Z,98197.55
2018-12-07T13:16:56.191Z,98184.06
2018-12-07T13:22:59.555Z,98164.52
2018-12-07T13:29:02.989Z,98162.71
2018-12-07T13:35:06.332Z,98144.27
2018-12-07T13:41:09.671Z,98144.05
2018-12-07T13:47:13.556Z,98110.84
2018-12-07T13:53:17.491Z,98098.61
2018-12-07T13:59:21.090Z,98077.42
2018-12-07T14:05:32.059Z,98069.80
2018-12-07T14:11:30.061Z,98060.14
2018-12-07T14:17:33.540Z,98057.92
2018-12-07T14:23:37.008Z,98022.62
2018-12-07T14:29:40.638Z,97996.22
2018-12-07T14:35:44.283Z,97995.31
2018-12-07T14:41:47.953Z,98011.70
2018-12-07T14:47:51.568Z,98002.38
2018-12-07T14:53:55.032Z,97986.66
2018-12-07T14:59:58.441Z,97959.71
2018-12-07T15:06:02.032Z,97939.28
2018-12-07T15:12:05.663Z,97943.84
2018-12-07T15:18:09.168Z,97940.97
2018-12-07T15:24:12.781Z,97921.74
2018-12-07T15:30:16.192Z,97930.53
2018-12-07T15:36:19.612Z,97926.03
2018-12-07T15:42:23.012Z,97897.42
2018-12-07T15:48:26.374Z,97872.98
2018-12-07T15:54:29.799Z,97864.08
2018-12-07T16:00:33.267Z,97870.88
2018-12-07T16:06:37.556Z,97867.52
2018-12-07T16:12:41.478Z,97848.59
2018-12-07T16:18:44.912Z,97811.67
2018-12-07T16:24:48.382Z,97832.06
2018-12-07T16:30:51.770Z,97824.48
2018-12-07T16:36:55.198Z,97822.53
2018-12-07T16:42:58.636Z,97834.33
2018-12-07T16:49:02.395Z,97831.81
2018-12-07T16:55:06.376Z,97822.36
2018-12-07T17:01:10.040Z,97802.61
2018-12-07T17:07:13.543Z,97780.52
2018-12-07T17:13:17.026Z,97786.88
2018-12-07T17:19:20.528Z,97783.72
2018-12-07T17:25:24.100Z,97771.19
2018-12-07T17:31:27.608Z,97749.88
2018-12-07T17:37:31.067Z,97742.59
2018-12-07T17:43:34.629Z,97738.03
2018-12-07T17:49:38.284Z,97730.97
2018-12-07T17:55:41.787Z,97723.59
2018-12-07T18:01:45.183Z,97705.67
2018-12-07T18:07:48.528Z,97698.72
2018-12-07T18:13:51.863Z,97695.56
2018-12-07T18:19:55.220Z,97695.95
2018-12-07T18:25:58.677Z,97672.62
2018-12-07T18:32:02.399Z,97665.00
2018-12-07T18:38:05.900Z,97648.13
2018-12-07T18:44:09.456Z,97627.52
2018-12-07T18:50:13.171Z,97626.65
2018-12-07T18:56:16.542Z,97620.09
2018-12-07T19:02:20.041Z,97625.84
2018-12-07T19:08:23.590Z,97621.98
2018-12-07T19:14:27.266Z,97606.16
2018-12-07T19:20:30.755Z,97605.83
2018-12-07T19:26:34.216Z,97599.65
2018-12-07T19:32:37.641Z,97579.94
2018-12-07T19:38:40.980Z,97571.42
2018-12-07T19:44:44.743Z,97573.07
2018-12-07T19:50:48.165Z,97566.73
2018-12-07T19:56:51.793Z,97557.13
2018-12-07T20:02:55.261Z,97543.36
2018-12-07T20:08:58.969Z,97541.77
2018-12-07T20:15:02.665Z,97549.84
2018-12-07T20:21:06.394Z,97533.45
2018-12-07T20:27:09.976Z,97538.59
2018-12-07T20:33:13.655Z,97541.87
2018-12-07T20:39:17.080Z,97555.01
2018-12-07T20:45:20.585Z,97556.60
2018-12-07T20:51:26.212Z,97594.78
2018-12-07T20:57:29.707Z,97657.73
2018-12-07T21:04:13.267Z,97690.16
2018-12-07T21:10:55.686Z,97760.55
2018-12-07T21:17:07.179Z,97788.41
2018-12-07T21:23:11.007Z,97812.59
2018-12-07T21:29:14.527Z,97798.64
2018-12-07T21:35:17.973Z,97815.02
2018-12-07T21:41:21.435Z,97844.78
2018-12-07T21:54:31.034Z,97897.57
2018-12-07T22:00:34.514Z,97893.05
2018-12-07T22:06:38.455Z,97906.74
2018-12-07T22:12:41.905Z,97927.31
2018-12-07T22:18:45.225Z,97938.38
2018-12-07T22:24:48.589Z,97962.95
2018-12-07T22:30:52.354Z,97991.69
2018-12-07T22:36:55.883Z,98002.30
2018-12-07T22:42:59.466Z,98021.27
2018-12-07T22:49:02.917Z,98026.21
2018-12-07T22:55:06.489Z,98042.16
2018-12-07T23:01:09.804Z,98057.00
2018-12-07T23:07:13.124Z,98065.34
2018-12-07T23:13:16.465Z,98070.61
2018-12-07T23:19:19.776Z,98097.35
2018-12-07T23:25:23.099Z,98095.83
2018-12-07T23:31:26.437Z,98106.38
2018-12-07T23:37:29.764Z,98106.47
2018-12-07T23:43:33.079Z,98107.47
2018-12-07T23:49:36.407Z,98109.41
2018-12-07T23:55:39.726Z,98114.55
